sensor_id;sensor_type;location;lat;lon;timestamp;pressure;altitude;pressure_sealevel;temperature;humidity
69879;BME280;57161;43.136;24.706;2022-12-07T00:01:17;99420.84;;;5.76;86.69
69879;BME280;57161;43.136;24.706;2022-12-07T00:03:44;99403.22;;;5.62;86.63
69879;BME280;57161;43.136;24.706;2022-12-07T00:06:12;99423.63;;;5.76;86.39
69879;BME280;57161;43.136;24.706;2022-12-07T00:08:38;99392.63;;;5.61;86.63
69879;BME280;57161;43.136;24.706;2022-12-07T00:11:09;99398.41;;;5.68;86.76
69879;BME280;57161;43.136;24.706;2022-12-07T00:13:35;99419.59;;;5.88;86.41
69879;BME280;57161;43.136;24.706;2022-12-07T00:16:10;99424.38;;;5.88;86.43
69879;BME280;57161;43.136;24.706;2022-12-07T00:18:36;99417.56;;;5.89;86.49
69879;BME280;57161;43.136;24.706;2022-12-07T00:23:32;99425.88;;;5.83;86.71
69879;BME280;57161;43.136;24.706;2022-12-07T00:26:22;99406.72;;;5.80;86.52
69879;BME280;57161;43.136;24.706;2022-12-07T00:28:50;99402.94;;;5.77;86.61
69879;BME280;57161;43.136;24.706;2022-12-07T00:31:18;99402.19;;;5.82;86.53
69879;BME280;57161;43.136;24.706;2022-12-07T00:33:44;99413.03;;;5.80;86.41
69879;BME280;57161;43.136;24.706;2022-12-07T00:36:14;99409.00;;;5.81;86.49
69879;BME280;57161;43.136;24.706;2022-12-07T00:38:40;99392.63;;;5.72;86.75
69879;BME280;57161;43.136;24.706;2022-12-07T00:41:11;99399.41;;;5.82;86.89
69879;BME280;57161;43.136;24.706;2022-12-07T00:43:37;99401.94;;;5.80;86.54
69879;BME280;57161;43.136;24.706;2022-12-07T00:46:04;99396.91;;;5.73;86.37
69879;BME280;57161;43.136;24.706;2022-12-07T00:48:29;99403.22;;;5.73;86.63
69879;BME280;57161;43.136;24.706;2022-12-07T00:50:55;99369.97;;;5.51;86.42
69879;BME280;57161;43.136;24.706;2022-12-07T00:53:20;99351.06;;;5.50;85.87
69879;BME280;57161;43.136;24.706;2022-12-07T00:55:46;99395.91;;;5.76;85.72
69879;BME280;57161;43.136;24.706;2022-12-07T00:58:12;99390.88;;;5.75;85.63
69879;BME280;57161;43.136;24.706;2022-12-07T01:00:39;99389.09;;;5.71;86.03
69879;BME280;57161;43.136;24.706;2022-12-07T01:03:06;99390.63;;;5.72;85.90
69879;BME280;57161;43.136;24.706;2022-12-07T01:05:32;99371.72;;;5.65;85.88
69879;BME280;57161;43.136;24.706;2022-12-07T01:07:57;99371.19;;;5.67;85.96
69879;BME280;57161;43.136;24.706;2022-12-07T01:10:23;99391.13;;;5.71;85.68
69879;BME280;57161;43.136;24.706;2022-12-07T01:12:49;99392.88;;;5.68;85.74
69879;BME280;57161;43.136;24.706;2022-12-07T01:15:14;99380.78;;;5.66;85.80
69879;BME280;57161;43.136;24.706;2022-12-07T01:17:40;99310.78;;;5.26;85.97
69879;BME280;57161;43.136;24.706;2022-12-07T01:20:06;99375.75;;;5.64;86.38
69879;BME280;57161;43.136;24.706;2022-12-07T01:22:37;99374.75;;;5.62;85.92
69879;BME280;57161;43.136;24.706;2022-12-07T01:25:03;99365.19;;;5.57;86.39
69879;BME280;57161;43.136;24.706;2022-12-07T01:27:28;99361.66;;;5.57;86.17
69879;BME280;57161;43.136;24.706;2022-12-07T01:29:54;99328.91;;;5.33;86.29
69879;BME280;57161;43.136;24.706;2022-12-07T01:32:19;99323.88;;;5.20;86.61
69879;BME280;57161;43.136;24.706;2022-12-07T01:34:47;99342.03;;;5.38;87.07
69879;BME280;57161;43.136;24.706;2022-12-07T01:37:13;99347.03;;;5.45;86.81
69879;BME280;57161;43.136;24.706;2022-12-07T01:39:38;99344.53;;;5.41;87.14
69879;BME280;57161;43.136;24.706;2022-12-07T01:42:11;99355.84;;;5.49;86.91
69879;BME280;57161;43.136;24.706;2022-12-07T01:47:41;99343.03;;;5.29;87.53
69879;BME280;57161;43.136;24.706;2022-12-07T01:50:07;99357.13;;;5.42;87.78
69879;BME280;57161;43.136;24.706;2022-12-07T01:52:33;99347.06;;;5.39;87.74
69879;BME280;57161;43.136;24.706;2022-12-07T01:55:12;99347.03;;;5.51;87.77
69879;BME280;57161;43.136;24.706;2022-12-07T01:57:45;99338.72;;;5.45;87.59
69879;BME280;57161;43.136;24.706;2022-12-07T02:00:13;99347.56;;;5.55;87.54
69879;BME280;57161;43.136;24.706;2022-12-07T02:02:47;99342.50;;;5.59;87.61
69879;BME280;57161;43.136;24.706;2022-12-07T02:05:13;99334.19;;;5.59;87.68
69879;BME280;57161;43.136;24.706;2022-12-07T02:07:39;99346.28;;;5.61;87.40
69879;BME280;57161;43.136;24.706;2022-12-07T02:12:38;99336.44;;;5.60;87.69
69879;BME280;57161;43.136;24.706;2022-12-07T02:15:05;99336.44;;;5.60;87.41
69879;BME280;57161;43.136;24.706;2022-12-07T02:20:51;99306.22;;;5.57;87.41
69879;BME280;57161;43.136;24.706;2022-12-07T02:23:35;99332.38;;;5.67;87.56
69879;BME280;57161;43.136;24.706;2022-12-07T02:28:36;99325.59;;;5.62;87.92
69879;BME280;57161;43.136;24.706;2022-12-07T02:31:07;99296.38;;;5.50;87.76
69879;BME280;57161;43.136;24.706;2022-12-07T02:33:46;99284.34;;;5.31;87.79
69879;BME280;57161;43.136;24.706;2022-12-07T02:36:24;99303.97;;;5.44;87.68
69879;BME280;57161;43.136;24.706;2022-12-07T02:38:58;99312.53;;;5.57;87.35
69879;BME280;57161;43.136;24.706;2022-12-07T02:41:32;99325.59;;;5.68;87.07
69879;BME280;57161;43.136;24.706;2022-12-07T02:44:12;99322.81;;;5.68;87.47
69879;BME280;57161;43.136;24.706;2022-12-07T02:47:01;99317.25;;;5.68;87.60
69879;BME280;57161;43.136;24.706;2022-12-07T02:49:28;99291.38;;;5.54;87.26
69879;BME280;57161;43.136;24.706;2022-12-07T02:51:54;99321.56;;;5.75;87.08
69879;BME280;57161;43.136;24.706;2022-12-07T02:54:20;99321.28;;;5.78;86.99
69879;BME280;57161;43.136;24.706;2022-12-07T02:56:54;99292.09;;;5.60;86.82
69879;BME280;57161;43.136;24.706;2022-12-07T02:59:26;99321.03;;;5.76;86.68
69879;BME280;57161;43.136;24.706;2022-12-07T03:04:33;99310.19;;;5.78;86.80
69879;BME280;57161;43.136;24.706;2022-12-07T03:07:18;99276.75;;;5.48;86.74
69879;BME280;57161;43.136;24.706;2022-12-07T03:15:28;99312.47;;;5.74;86.74
69879;BME280;57161;43.136;24.706;2022-12-07T03:17:57;99309.72;;;5.74;86.86
69879;BME280;57161;43.136;24.706;2022-12-07T03:20:25;99303.16;;;5.71;86.65
69879;BME280;57161;43.136;24.706;2022-12-07T03:22:52;99290.84;;;5.61;87.17
69879;BME280;57161;43.136;24.706;2022-12-07T03:25:19;99279.25;;;5.57;86.82
69879;BME280;57161;43.136;24.706;2022-12-07T03:30:17;99288.06;;;5.61;86.75
69879;BME280;57161;43.136;24.706;2022-12-07T03:32:46;99280.81;;;5.41;86.98
69879;BME280;57161;43.136;24.706;2022-12-07T03:35:21;99286.09;;;5.45;87.37
69879;BME280;57161;43.136;24.706;2022-12-07T03:42:57;99271.25;;;5.15;87.85
69879;BME280;57161;43.136;24.706;2022-12-07T03:45:31;99291.91;;;5.25;88.38
69879;BME280;57161;43.136;24.706;2022-12-07T03:50:52;99294.16;;;5.26;88.45
69879;BME280;57161;43.136;24.706;2022-12-07T03:53:32;99278.03;;;5.19;88.39
69879;BME280;57161;43.136;24.706;2022-12-07T03:56:00;99265.97;;;5.11;88.50
69879;BME280;57161;43.136;24.706;2022-12-07T03:58:27;99290.38;;;5.29;88.30
69879;BME280;57161;43.136;24.706;2022-12-07T04:00:53;99249.88;;;4.98;88.05
69879;BME280;57161;43.136;24.706;2022-12-07T04:03:19;99291.66;;;5.28;88.19
69879;BME280;57161;43.136;24.706;2022-12-07T04:05:45;99261.94;;;5.12;88.09
69879;BME280;57161;43.136;24.706;2022-12-07T04:08:10;99302.47;;;5.32;88.05
69879;BME280;57161;43.136;24.706;2022-12-07T04:10:36;99270.50;;;5.25;87.89
69879;BME280;57161;43.136;24.706;2022-12-07T04:13:01;99275.03;;;5.28;87.89
69879;BME280;57161;43.136;24.706;2022-12-07T04:15:27;99266.47;;;5.15;88.00
69879;BME280;57161;43.136;24.706;2022-12-07T04:17:53;99270.50;;;5.25;87.99
69879;BME280;57161;43.136;24.706;2022-12-07T04:20:20;99257.66;;;5.17;87.97
69879;BME280;57161;43.136;24.706;2022-12-07T04:22:46;99272.28;;;5.23;88.06
69879;BME280;57161;43.136;24.706;2022-12-07T04:25:11;99233.00;;;4.96;88.04
69879;BME280;57161;43.136;24.706;2022-12-07T04:27:37;99252.13;;;5.22;87.99
69879;BME280;57161;43.136;24.706;2022-12-07T04:30:02;99246.84;;;5.13;87.73
69879;BME280;57161;43.136;24.706;2022-12-07T04:32:28;99224.19;;;4.98;87.77
69879;BME280;57161;43.136;24.706;2022-12-07T04:34:53;99251.13;;;5.08;87.77
69879;BME280;57161;43.136;24.706;2022-12-07T04:37:19;99262.69;;;5.29;87.38
69879;BME280;57161;43.136;24.706;2022-12-07T04:39:44;99241.56;;;5.21;87.42
69879;BME280;57161;43.136;24.706;2022-12-07T04:42:10;99227.41;;;5.30;87.16
69879;BME280;57161;43.136;24.706;2022-12-07T04:44:36;99215.09;;;5.20;87.01
69879;BME280;57161;43.136;24.706;2022-12-07T04:47:01;99223.19;;;5.12;87.14
69879;BME280;57161;43.136;24.706;2022-12-07T04:49:27;99246.31;;;5.15;87.75
69879;BME280;57161;43.136;24.706;2022-12-07T04:51:53;99219.91;;;5.02;87.65
69879;BME280;57161;43.136;24.706;2022-12-07T04:54:19;99237.50;;;5.16;87.98
69879;BME280;57161;43.136;24.706;2022-12-07T04:56:44;99244.31;;;5.15;87.81
69879;BME280;57161;43.136;24.706;2022-12-07T04:59:15;99234.25;;;5.12;87.83
69879;BME280;57161;43.136;24.706;2022-12-07T05:01:40;99225.22;;;5.06;87.81
69879;BME280;57161;43.136;24.706;2022-12-07T05:04:06;99241.31;;;5.13;87.75
69879;BME280;57161;43.136;24.706;2022-12-07T05:06:32;99182.94;;;4.77;87.65
69879;BME280;57161;43.136;24.706;2022-12-07T05:08:58;99190.72;;;4.85;87.69
69879;BME280;57161;43.136;24.706;2022-12-07T05:11:26;99224.94;;;5.15;87.40
69879;BME280;57161;43.136;24.706;2022-12-07T05:16:37;99204.31;;;4.94;87.38
69879;BME280;57161;43.136;24.706;2022-12-07T05:19:03;99230.19;;;5.19;87.37
69879;BME280;57161;43.136;24.706;2022-12-07T05:21:29;99224.44;;;5.22;87.08
69879;BME280;57161;43.136;24.706;2022-12-07T05:23:54;99211.34;;;5.11;86.91
69879;BME280;57161;43.136;24.706;2022-12-07T05:26:20;99164.78;;;4.88;86.86
69879;BME280;57161;43.136;24.706;2022-12-07T05:28:50;99226.19;;;5.25;86.71
69879;BME280;57161;43.136;24.706;2022-12-07T05:31:16;99225.41;;;5.19;86.86
69879;BME280;57161;43.136;24.706;2022-12-07T05:33:41;99229.47;;;5.12;87.07
69879;BME280;57161;43.136;24.706;2022-12-07T05:36:07;99224.69;;;5.02;86.60
69879;BME280;57161;43.136;24.706;2022-12-07T05:38:33;99183.69;;;4.83;86.67
69879;BME280;57161;43.136;24.706;2022-12-07T05:41:03;99209.38;;;4.90;86.92
69879;BME280;57161;43.136;24.706;2022-12-07T05:43:29;99224.44;;;5.05;86.93
69879;BME280;57161;43.136;24.706;2022-12-07T05:45:55;99244.09;;;5.07;87.30
69879;BME280;57161;43.136;24.706;2022-12-07T05:48:20;99211.38;;;4.89;87.26
69879;BME280;57161;43.136;24.706;2022-12-07T05:50:49;99226.94;;;5.03;87.01
69879;BME280;57161;43.136;24.706;2022-12-07T05:53:15;99257.91;;;5.13;87.18
69879;BME280;57161;43.136;24.706;2022-12-07T05:55:42;99259.69;;;5.10;86.96
69879;BME280;57161;43.136;24.706;2022-12-07T05:58:08;99237.28;;;5.03;87.03
69879;BME280;57161;43.136;24.706;2022-12-07T06:00:54;99214.63;;;4.99;86.55
69879;BME280;57161;43.136;24.706;2022-12-07T06:03:19;99252.88;;;5.11;86.52
69879;BME280;57161;43.136;24.706;2022-12-07T06:05:45;99277.78;;;5.28;86.50
69879;BME280;57161;43.136;24.706;2022-12-07T06:08:10;99269.22;;;5.32;86.40
69879;BME280;57161;43.136;24.706;2022-12-07T06:10:36;99276.28;;;5.27;86.26
69879;BME280;57161;43.136;24.706;2022-12-07T06:13:01;99270.25;;;5.18;86.47
69879;BME280;57161;43.136;24.706;2022-12-07T06:15:27;99270.50;;;5.08;87.12
69879;BME280;57161;43.136;24.706;2022-12-07T06:17:52;99232.75;;;5.00;87.15
69879;BME280;57161;43.136;24.706;2022-12-07T06:20:18;99267.22;;;5.27;87.03
69879;BME280;57161;43.136;24.706;2022-12-07T06:22:43;99258.41;;;5.28;86.99
69879;BME280;57161;43.136;24.706;2022-12-07T06:25:09;99269.47;;;5.39;86.56
69879;BME280;57161;43.136;24.706;2022-12-07T06:27:35;99269.72;;;5.41;86.36
69879;BME280;57161;43.136;24.706;2022-12-07T06:30:00;99269.22;;;5.43;86.23
69879;BME280;57161;43.136;24.706;2022-12-07T06:32:32;99255.13;;;5.41;85.90
69879;BME280;57161;43.136;24.706;2022-12-07T06:34:57;99260.13;;;5.48;86.05
69879;BME280;57161;43.136;24.706;2022-12-07T06:37:23;99266.16;;;5.58;85.83
69879;BME280;57161;43.136;24.706;2022-12-07T06:39:48;99245.75;;;5.50;85.40
69879;BME280;57161;43.136;24.706;2022-12-07T06:42:14;99239.97;;;5.48;85.56
69879;BME280;57161;43.136;24.706;2022-12-07T06:44:39;99262.84;;;5.65;85.03
69879;BME280;57161;43.136;24.706;2022-12-07T06:47:05;99265.88;;;5.72;84.87
69879;BME280;57161;43.136;24.706;2022-12-07T06:49:30;99266.09;;;5.75;84.65
69879;BME280;57161;43.136;24.706;2022-12-07T06:51:56;99261.28;;;5.81;84.41
69879;BME280;57161;43.136;24.706;2022-12-07T06:54:21;99251.22;;;5.78;84.45
69879;BME280;57161;43.136;24.706;2022-12-07T06:56:47;99235.84;;;5.77;84.47
69879;BME280;57161;43.136;24.706;2022-12-07T06:59:12;99256.50;;;5.92;84.55
69879;BME280;57161;43.136;24.706;2022-12-07T07:01:38;99244.41;;;5.79;84.51
69879;BME280;57161;43.136;24.706;2022-12-07T07:04:04;99255.97;;;5.88;84.57
69879;BME280;57161;43.136;24.706;2022-12-07T07:06:30;99263.25;;;5.97;84.48
69879;BME280;57161;43.136;24.706;2022-12-07T07:08:56;99257.94;;;6.05;83.73
69879;BME280;57161;43.136;24.706;2022-12-07T07:11:21;99215.22;;;5.72;83.46
69879;BME280;57161;43.136;24.706;2022-12-07T07:13:47;99273.53;;;6.19;82.95
69879;BME280;57161;43.136;24.706;2022-12-07T07:16:12;99270.75;;;6.13;83.16
69879;BME280;57161;43.136;24.706;2022-12-07T07:18:38;99269.28;;;6.07;82.71
69879;BME280;57161;43.136;24.706;2022-12-07T07:21:03;99244.88;;;5.88;82.94
69879;BME280;57161;43.136;24.706;2022-12-07T07:23:29;99247.66;;;5.83;83.59
69879;BME280;57161;43.136;24.706;2022-12-07T07:25:55;99247.94;;;5.79;83.48
69879;BME280;57161;43.136;24.706;2022-12-07T07:28:20;99213.75;;;5.54;82.86
69879;BME280;57161;43.136;24.706;2022-12-07T07:30:46;99274.38;;;5.97;82.79
69879;BME280;57161;43.136;24.706;2022-12-07T07:33:11;99254.19;;;5.85;83.17
69879;BME280;57161;43.136;24.706;2022-12-07T07:35:37;99287.44;;;6.08;82.95
69879;BME280;57161;43.136;24.706;2022-12-07T07:38:04;99257.75;;;5.91;83.16
69879;BME280;57161;43.136;24.706;2022-12-07T07:40:29;99280.69;;;5.92;83.83
69879;BME280;57161;43.136;24.706;2022-12-07T07:42:55;99292.53;;;5.87;84.37
69879;BME280;57161;43.136;24.706;2022-12-07T07:45:22;99273.63;;;5.85;84.32
69879;BME280;57161;43.136;24.706;2022-12-07T07:47:49;99305.78;;;6.22;84.02
69879;BME280;57161;43.136;24.706;2022-12-07T07:50:15;99278.06;;;6.16;83.25
69879;BME280;57161;43.136;24.706;2022-12-07T07:52:41;99288.31;;;6.32;82.75
69879;BME280;57161;43.136;24.706;2022-12-07T07:55:07;99237.97;;;6.12;82.44
69879;BME280;57161;43.136;24.706;2022-12-07T07:57:37;99309.34;;;6.63;82.32
69879;BME280;57161;43.136;24.706;2022-12-07T08:00:09;99291.63;;;6.72;81.95
69879;BME280;57161;43.136;24.706;2022-12-07T08:02:35;99274.84;;;6.48;81.52
69879;BME280;57161;43.136;24.706;2022-12-07T08:05:01;99295.56;;;6.47;81.41
69879;BME280;57161;43.136;24.706;2022-12-07T08:07:27;99264.94;;;6.22;81.80
69879;BME280;57161;43.136;24.706;2022-12-07T08:09:53;99267.91;;;6.30;81.77
69879;BME280;57161;43.136;24.706;2022-12-07T08:12:19;99287.97;;;6.53;81.70
69879;BME280;57161;43.136;24.706;2022-12-07T08:14:44;99280.59;;;6.61;81.58
69879;BME280;57161;43.136;24.706;2022-12-07T08:17:10;99268.13;;;6.73;81.08
69879;BME280;57161;43.136;24.706;2022-12-07T08:19:35;99278.88;;;6.88;80.29
69879;BME280;57161;43.136;24.706;2022-12-07T08:22:01;99280.81;;;6.99;79.96
69879;BME280;57161;43.136;24.706;2022-12-07T08:24:27;99284.59;;;7.01;79.32
69879;BME280;57161;43.136;24.706;2022-12-07T08:26:52;99274.88;;;7.13;78.65
69879;BME280;57161;43.136;24.706;2022-12-07T08:29:18;99280.13;;;7.22;78.11
69879;BME280;57161;43.136;24.706;2022-12-07T08:31:44;99290.41;;;7.28;77.99
69879;BME280;57161;43.136;24.706;2022-12-07T08:34:10;99287.78;;;7.41;78.23
69879;BME280;57161;43.136;24.706;2022-12-07T08:36:36;99281.53;;;7.35;78.10
69879;BME280;57161;43.136;24.706;2022-12-07T08:39:02;99289.34;;;7.36;78.36
69879;BME280;57161;43.136;24.706;2022-12-07T08:41:27;99295.00;;;7.25;78.79
69879;BME280;57161;43.136;24.706;2022-12-07T08:43:53;99248.94;;;7.05;78.53
69879;BME280;57161;43.136;24.706;2022-12-07T08:46:23;99254.56;;;7.00;78.85
69879;BME280;57161;43.136;24.706;2022-12-07T08:49:01;99265.25;;;7.20;78.52
69879;BME280;57161;43.136;24.706;2022-12-07T08:51:27;99215.91;;;7.02;77.71
69879;BME280;57161;43.136;24.706;2022-12-07T08:53:55;99261.25;;;7.40;77.97
69879;BME280;57161;43.136;24.706;2022-12-07T08:56:23;99271.53;;;7.50;77.67
69879;BME280;57161;43.136;24.706;2022-12-07T08:58:49;99256.19;;;7.63;77.64
69879;BME280;57161;43.136;24.706;2022-12-07T09:01:14;99260.97;;;7.68;77.64
69879;BME280;57161;43.136;24.706;2022-12-07T09:03:40;99248.88;;;7.65;77.47
69879;BME280;57161;43.136;24.706;2022-12-07T09:06:06;99216.47;;;7.43;77.34
69879;BME280;57161;43.136;24.706;2022-12-07T09:08:35;99228.00;;;7.53;77.38
69879;BME280;57161;43.136;24.706;2022-12-07T09:11:02;99233.81;;;7.55;77.73
69879;BME280;57161;43.136;24.706;2022-12-07T09:13:27;99236.13;;;7.51;78.29
69879;BME280;57161;43.136;24.706;2022-12-07T09:15:53;99211.44;;;7.42;78.24
69879;BME280;57161;43.136;24.706;2022-12-07T09:18:19;99217.56;;;7.59;77.85
69879;BME280;57161;43.136;24.706;2022-12-07T09:20:44;99187.72;;;7.41;77.24
69879;BME280;57161;43.136;24.706;2022-12-07T09:23:10;99192.91;;;7.50;77.10
69879;BME280;57161;43.136;24.706;2022-12-07T09:25:36;99215.34;;;7.76;76.62
69879;BME280;57161;43.136;24.706;2022-12-07T09:28:01;99193.53;;;7.62;76.78
69879;BME280;57161;43.136;24.706;2022-12-07T09:30:27;99213.78;;;7.81;77.20
69879;BME280;57161;43.136;24.706;2022-12-07T09:32:54;99193.00;;;7.63;77.00
69879;BME280;57161;43.136;24.706;2022-12-07T09:35:20;99178.13;;;7.79;76.48
69879;BME280;57161;43.136;24.706;2022-12-07T09:37:46;99168.00;;;7.82;76.40
69879;BME280;57161;43.136;24.706;2022-12-07T09:40:13;99209.13;;;8.08;76.35
69879;BME280;57161;43.136;24.706;2022-12-07T09:42:42;99200.25;;;7.91;76.69
69879;BME280;57161;43.136;24.706;2022-12-07T09:45:27;99182.81;;;7.90;77.13
69879;BME280;57161;43.136;24.706;2022-12-07T09:47:54;99177.38;;;7.79;76.99
69879;BME280;57161;43.136;24.706;2022-12-07T09:50:25;99185.28;;;7.94;76.79
69879;BME280;57161;43.136;24.706;2022-12-07T09:52:52;99153.34;;;7.81;76.63
69879;BME280;57161;43.136;24.706;2022-12-07T09:55:29;99186.41;;;8.04;76.45
69879;BME280;57161;43.136;24.706;2022-12-07T09:57:57;99168.81;;;7.96;76.57
69879;BME280;57161;43.136;24.706;2022-12-07T10:00:24;99182.88;;;8.03;76.99
69879;BME280;57161;43.136;24.706;2022-12-07T10:02:58;99181.16;;;8.19;76.83
69879;BME280;57161;43.136;24.706;2022-12-07T10:05:31;99166.53;;;8.32;76.56
69879;BME280;57161;43.136;24.706;2022-12-07T10:07:58;99171.41;;;8.45;76.25
69879;BME280;57161;43.136;24.706;2022-12-07T10:10:29;99157.88;;;8.54;75.64
69879;BME280;57161;43.136;24.706;2022-12-07T10:12:57;99166.66;;;8.58;75.84
69879;BME280;57161;43.136;24.706;2022-12-07T10:15:22;99118.47;;;8.31;75.60
69879;BME280;57161;43.136;24.706;2022-12-07T10:17:50;99155.88;;;8.68;75.75
69879;BME280;57161;43.136;24.706;2022-12-07T10:23:02;99137.75;;;8.75;75.56
69879;BME280;57161;43.136;24.706;2022-12-07T10:25:35;99140.78;;;8.90;74.75
69879;BME280;57161;43.136;24.706;2022-12-07T10:30:33;99131.47;;;8.87;75.23
69879;BME280;57161;43.136;24.706;2022-12-07T10:36:00;99126.44;;;8.86;74.88
69879;BME280;57161;43.136;24.706;2022-12-07T10:38:57;99115.94;;;8.79;74.19
69879;BME280;57161;43.136;24.706;2022-12-07T10:41:24;99126.66;;;8.88;74.64
69879;BME280;57161;43.136;24.706;2022-12-07T10:43:55;99114.44;;;8.91;74.94
69879;BME280;57161;43.136;24.706;2022-12-07T10:49:12;99108.88;;;9.04;74.54
69879;BME280;57161;43.136;24.706;2022-12-07T10:57:11;99092.03;;;9.23;72.53
69879;BME280;57161;43.136;24.706;2022-12-07T11:11:06;99102.34;;;10.09;70.92
69879;BME280;57161;43.136;24.706;2022-12-07T11:14:30;99092.44;;;10.21;70.53
69879;BME280;57161;43.136;24.706;2022-12-07T11:17:03;99083.59;;;10.31;70.61
69879;BME280;57161;43.136;24.706;2022-12-07T11:19:51;99078.47;;;10.63;69.74
69879;BME280;57161;43.136;24.706;2022-12-07T11:25:47;99072.34;;;10.72;69.77
69879;BME280;57161;43.136;24.706;2022-12-07T11:31:18;99060.72;;;10.89;69.80
69879;BME280;57161;43.136;24.706;2022-12-07T11:34:00;99055.47;;;10.57;70.52
69879;BME280;57161;43.136;24.706;2022-12-07T11:36:35;99034.19;;;10.46;71.27
69879;BME280;57161;43.136;24.706;2022-12-07T11:39:30;99046.41;;;10.64;70.93
69879;BME280;57161;43.136;24.706;2022-12-07T11:42:08;99051.50;;;10.73;71.19
69879;BME280;57161;43.136;24.706;2022-12-07T11:44:56;99021.00;;;10.26;72.38
69879;BME280;57161;43.136;24.706;2022-12-07T11:52:44;99054.00;;;10.56;72.35
69879;BME280;57161;43.136;24.706;2022-12-07T11:55:21;99052.09;;;10.51;72.91
69879;BME280;57161;43.136;24.706;2022-12-07T11:57:53;99037.81;;;10.34;73.25
69879;BME280;57161;43.136;24.706;2022-12-07T12:00:22;99031.53;;;10.41;73.58
69879;BME280;57161;43.136;24.706;2022-12-07T12:02:51;99039.78;;;10.46;74.05
69879;BME280;57161;43.136;24.706;2022-12-07T12:05:21;99025.16;;;10.33;74.33
69879;BME280;57161;43.136;24.706;2022-12-07T12:07:55;99028.72;;;10.41;74.53
69879;BME280;57161;43.136;24.706;2022-12-07T12:10:42;99030.25;;;10.42;75.37
69879;BME280;57161;43.136;24.706;2022-12-07T12:19:32;99010.72;;;10.21;76.37
69879;BME280;57161;43.136;24.706;2022-12-07T12:22:20;99005.66;;;10.19;76.29
69879;BME280;57161;43.136;24.706;2022-12-07T12:24:52;99009.94;;;10.20;76.52
69879;BME280;57161;43.136;24.706;2022-12-07T12:27:28;99010.22;;;10.09;77.03
69879;BME280;57161;43.136;24.706;2022-12-07T12:29:59;99005.91;;;10.08;76.97
69879;BME280;57161;43.136;24.706;2022-12-07T12:32:42;99012.31;;;10.16;77.37
69879;BME280;57161;43.136;24.706;2022-12-07T12:35:28;99006.41;;;9.99;78.23
69879;BME280;57161;43.136;24.706;2022-12-07T12:40:54;99008.25;;;9.97;78.69
69879;BME280;57161;43.136;24.706;2022-12-07T12:43:44;98989.25;;;9.74;79.85
69879;BME280;57161;43.136;24.706;2022-12-07T12:49:13;99000.88;;;9.65;80.43
69879;BME280;57161;43.136;24.706;2022-12-07T12:51:41;98996.63;;;9.51;80.40
69879;BME280;57161;43.136;24.706;2022-12-07T12:54:21;98970.47;;;9.20;80.98
69879;BME280;57161;43.136;24.706;2022-12-07T12:59:28;99012.59;;;9.29;82.00
69879;BME280;57161;43.136;24.706;2022-12-07T13:04:53;99016.78;;;9.10;83.07
69879;BME280;57161;43.136;24.706;2022-12-07T13:15:42;99006.72;;;8.93;83.40
69879;BME280;57161;43.136;24.706;2022-12-07T13:29:18;98998.81;;;8.97;83.23
69879;BME280;57161;43.136;24.706;2022-12-07T13:31:52;99008.88;;;9.00;82.73
69879;BME280;57161;43.136;24.706;2022-12-07T13:34:42;99010.38;;;8.88;83.25
69879;BME280;57161;43.136;24.706;2022-12-07T13:37:15;98988.53;;;8.79;83.38
69879;BME280;57161;43.136;24.706;2022-12-07T13:39:56;98991.34;;;8.79;83.24
69879;BME280;57161;43.136;24.706;2022-12-07T13:42:31;98990.34;;;8.77;83.75
69879;BME280;57161;43.136;24.706;2022-12-07T13:45:00;98991.00;;;8.69;84.07
69879;BME280;57161;43.136;24.706;2022-12-07T13:47:41;98977.41;;;8.53;84.50
69879;BME280;57161;43.136;24.706;2022-12-07T13:50:23;98988.88;;;8.49;85.42
69879;BME280;57161;43.136;24.706;2022-12-07T13:52:49;98973.50;;;8.29;85.67
69879;BME280;57161;43.136;24.706;2022-12-07T13:55:16;98965.47;;;8.26;85.95
69879;BME280;57161;43.136;24.706;2022-12-07T13:57:44;98929.16;;;8.05;85.96
69879;BME280;57161;43.136;24.706;2022-12-07T14:00:17;98984.25;;;8.52;85.63
69879;BME280;57161;43.136;24.706;2022-12-07T14:03:04;98982.00;;;8.50;85.53
69879;BME280;57161;43.136;24.706;2022-12-07T14:06:22;99003.88;;;8.46;86.14
69879;BME280;57161;43.136;24.706;2022-12-07T14:08:51;99004.34;;;8.31;86.82
69879;BME280;57161;43.136;24.706;2022-12-07T14:11:30;99002.19;;;8.24;86.66
69879;BME280;57161;43.136;24.706;2022-12-07T14:13:59;98997.16;;;8.23;87.02
69879;BME280;57161;43.136;24.706;2022-12-07T14:16:36;99001.69;;;8.39;86.80
69879;BME280;57161;43.136;24.706;2022-12-07T14:19:05;99004.38;;;8.45;86.35
69879;BME280;57161;43.136;24.706;2022-12-07T14:21:33;98996.53;;;8.30;87.24
69879;BME280;57161;43.136;24.706;2022-12-07T14:24:20;98991.78;;;8.25;87.49
69879;BME280;57161;43.136;24.706;2022-12-07T14:26:47;98995.22;;;8.18;87.80
69879;BME280;57161;43.136;24.706;2022-12-07T14:31:51;98999.38;;;8.11;87.94
69879;BME280;57161;43.136;24.706;2022-12-07T14:34:20;98988.63;;;7.89;88.66
69879;BME280;57161;43.136;24.706;2022-12-07T14:36:45;99003.75;;;8.06;88.72
69879;BME280;57161;43.136;24.706;2022-12-07T14:39:11;98965.28;;;7.92;88.51
69879;BME280;57161;43.136;24.706;2022-12-07T14:41:36;99010.94;;;8.15;87.98
69879;BME280;57161;43.136;24.706;2022-12-07T14:44:19;99012.44;;;8.16;88.00
69879;BME280;57161;43.136;24.706;2022-12-07T14:46:46;98987.97;;;7.96;88.58
69879;BME280;57161;43.136;24.706;2022-12-07T14:49:12;99022.16;;;8.09;88.48
69879;BME280;57161;43.136;24.706;2022-12-07T14:51:39;99007.19;;;8.12;87.98
69879;BME280;57161;43.136;24.706;2022-12-07T14:54:07;98954.97;;;7.73;88.06
69879;BME280;57161;43.136;24.706;2022-12-07T14:56:38;98951.56;;;7.80;88.27
69879;BME280;57161;43.136;24.706;2022-12-07T14:59:03;98964.81;;;7.74;88.71
69879;BME280;57161;43.136;24.706;2022-12-07T15:01:29;98949.72;;;7.70;88.77
69879;BME280;57161;43.136;24.706;2022-12-07T15:03:54;98979.66;;;8.09;88.08
69879;BME280;57161;43.136;24.706;2022-12-07T15:06:20;98997.88;;;8.10;88.00